Vitry en Artois Airfield

METAR EBFN TAF EBFN
3 °C
°C
-
°C
25m
Âge
10:50:25
LT
09:50
UTC
0 ft

1.000

2.000

3.000

4.000

5.000

OVC 3.700
VFR
<?= Yii::t('app', 'Wind direction') ?> <?= Yii::t('app', 'of'); ?>
VAR
17:32
Coucher de soleil
87%
Humidité
Cisaillement du vent
Fermé/neige
Portée visuelle RWY
Condition RWY
Visibilité vert.
Visibilité min.
CAVOK
Tendance
Correction
Rapport spécial
1031 hPa
QNH
METAR EBFN 280925Z AUTO VRB02KT 9999 OVC037/// 03/01 Q1031 BLU
Couvert
2 kt
2 kt
11:00
MVFR
2 kt
12:00
MVFR
2 kt
13:00
MVFR
2 kt
14:00
MVFR
2 kt
15:00
MVFR
2 kt
16:00
MVFR
2 kt
17:00
MVFR
2 kt
10 km+
Vue
3.700 ft
Base cloud
2 kt
Vent
metar-taf.com/LFQS

Metar-Taf.com

Décodeur visuel

Nous et des tiers suivons ton comportement Internet sur notre site Web à l'aide de cookies. Si tu continues, nous supposons que tu es d'accord avec notre Politique en matière de cookies.